KHIO/HIO METAR and TAF weather

Enter ICAO airport designator
Station Type Date Time Source
KHIO METAR 2021/09/16 09:53 UTC NOAA

KHIO 160953Z AUTO 00000KT 10SM CLR 06/03 A3014 RMK AO2 SLP206 T00560028 $


Station Type Date Time Source
KHIO Decoded METAR 2021/09/16 09:53 UTC NOAA

PORTLAND-HILLSBORO AIRPORT, OR, United States (KHIO) 45-33N 122-57W 68M
Sep 16, 2021 - 05:53 AM EDT / 2021.09.16 0953 UTC
Wind: Calm:0
Visibility: 10 mile(s):0
Sky conditions: clear
Temperature: 42.1 F (5.6 C)
Dew Point: 37.0 F (2.8 C)
Relative Humidity: 82%
Pressure (altimeter): 30.14 in. Hg (1020 hPa)
ob: KHIO 160953Z AUTO 00000KT 10SM CLR 06/03 A3014 RMK AO2 SLP206 T00560028
cycle: 10

Station Type Date Time Source
KHIO TAF 2021/09/16 06:22 UTC NOAA

TAF KHIO 160520Z 1606/1706 VRB05KT P6SM SKC

Example: see airport list